VBV1801 EHAM-LFPO
Flight info
| Callsign | VBV1801 |
|---|---|
| Flight time | 0h 49m |
| Altitude | 29000 |
| Route | WOODY N872 NIK UY131 NILEM DCT MOPIL |
| Aircraft | B77W/H-DE1E2E3FGHIJ2J3J4J5LM1RWXY/LB1D1 |
Departure
| Time | 2026-04-18 10:01 |
|---|---|
| Airport | Amsterdam Airport Schiphol (EHAM) |
Arrival
| Time | 2026-04-18 10:51 |
|---|---|
| Airport | Paris-Orly Airport (LFPO) |
| Time | Latitude | Longitude | Altitude | Speed | Heading |
|---|---|---|---|---|---|
| 2026-04-18 09:03 | 52.30639 | 4.76669 | 1 ft | 0 kts | 237° |
| 2026-04-18 09:54 | 52.30645 | 4.76683 | 2 ft | 3 kts | 237° |
| 2026-04-18 09:54 | 52.30655 | 4.76709 | 4 ft | 3 kts | 237° |
| 2026-04-18 09:54 | 52.30665 | 4.76735 | 2 ft | 3 kts | 237° |
| 2026-04-18 09:54 | 52.30674 | 4.76757 | 2 ft | 2 kts | 237° |
| 2026-04-18 09:55 | 52.30682 | 4.76774 | 3 ft | 2 kts | 237° |
| 2026-04-18 09:55 | 52.30682 | 4.76775 | 3 ft | 0 kts | 237° |
| 2026-04-18 09:55 | 52.30683 | 4.76777 | 3 ft | 2 kts | 237° |
| 2026-04-18 09:55 | 52.30683 | 4.76779 | 3 ft | 0 kts | 237° |
| 2026-04-18 09:57 | 52.30673 | 4.76748 | 2 ft | 10 kts | 247° |
| 2026-04-18 09:58 | 52.30707 | 4.76663 | 2 ft | 10 kts | 353° |
| 2026-04-18 09:58 | 52.30739 | 4.76745 | 1 ft | 10 kts | 112° |
| 2026-04-18 09:58 | 52.30690 | 4.76838 | 3 ft | 11 kts | 129° |
| 2026-04-18 09:58 | 52.30662 | 4.76956 | 2 ft | 12 kts | 99° |
| 2026-04-18 09:59 | 52.30655 | 4.77094 | 1 ft | 13 kts | 94° |
| 2026-04-18 09:59 | 52.30647 | 4.77255 | 0 ft | 15 kts | 97° |
| 2026-04-18 09:59 | 52.30641 | 4.77424 | 2 ft | 15 kts | 98° |
| 2026-04-18 10:00 | 52.30559 | 4.77551 | 2 ft | 2 kts | 149° |
| 2026-04-18 10:00 | 52.30540 | 4.77570 | 2 ft | 5 kts | 149° |
| 2026-04-18 10:00 | 52.30458 | 4.77631 | 4 ft | 15 kts | 172° |
| 2026-04-18 10:00 | 52.30375 | 4.77536 | 2 ft | 18 kts | 235° |
| 2026-04-18 10:01 | 52.30163 | 4.76987 | 0 ft | 107 kts | 238° |
| 2026-04-18 10:01 | 52.29617 | 4.75560 | 146 ft | 177 kts | 238° |
| 2026-04-18 10:01 | 52.28903 | 4.73739 | 837 ft | 205 kts | 239° |
| 2026-04-18 10:01 | 52.28095 | 4.71627 | 1727 ft | 225 kts | 239° |
| 2026-04-18 10:02 | 52.27243 | 4.69434 | 2783 ft | 231 kts | 235° |
| 2026-04-18 10:02 | 52.25953 | 4.67844 | 3659 ft | 244 kts | 200° |
| 2026-04-18 10:02 | 52.24222 | 4.67922 | 4692 ft | 260 kts | 163° |
| 2026-04-18 10:02 | 52.22912 | 4.69172 | 5451 ft | 268 kts | 148° |
| 2026-04-18 10:03 | 52.21358 | 4.70920 | 5968 ft | 273 kts | 152° |
| 2026-04-18 10:03 | 52.19716 | 4.72499 | 5979 ft | 276 kts | 155° |
| 2026-04-18 10:03 | 52.18021 | 4.73989 | 6217 ft | 277 kts | 156° |
| 2026-04-18 10:03 | 52.16277 | 4.75252 | 7115 ft | 273 kts | 167° |
| 2026-04-18 10:04 | 52.14438 | 4.75996 | 8163 ft | 272 kts | 172° |
| 2026-04-18 10:04 | 52.12582 | 4.76633 | 9209 ft | 274 kts | 172° |
| 2026-04-18 10:04 | 52.10700 | 4.77286 | 10170 ft | 279 kts | 172° |
| 2026-04-18 10:04 | 52.08766 | 4.77980 | 10853 ft | 294 kts | 172° |
| 2026-04-18 10:05 | 52.06667 | 4.78754 | 11105 ft | 326 kts | 171° |
| 2026-04-18 10:05 | 52.04367 | 4.79631 | 11593 ft | 349 kts | 170° |
| 2026-04-18 10:05 | 52.01972 | 4.80559 | 12580 ft | 358 kts | 170° |
| 2026-04-18 10:05 | 51.99532 | 4.81205 | 13593 ft | 356 kts | 184° |
| 2026-04-18 10:06 | 51.97107 | 4.80495 | 14622 ft | 356 kts | 204° |
| 2026-04-18 10:06 | 51.94870 | 4.78798 | 15730 ft | 357 kts | 209° |
| 2026-04-18 10:06 | 51.92633 | 4.76981 | 16815 ft | 362 kts | 209° |
| 2026-04-18 10:06 | 51.90362 | 4.75153 | 17883 ft | 368 kts | 209° |
| 2026-04-18 10:07 | 51.88037 | 4.73315 | 18891 ft | 374 kts | 208° |
| 2026-04-18 10:07 | 51.85687 | 4.71472 | 19908 ft | 376 kts | 208° |
| 2026-04-18 10:07 | 51.83364 | 4.69659 | 20979 ft | 376 kts | 208° |
| 2026-04-18 10:07 | 51.80998 | 4.67816 | 22024 ft | 379 kts | 209° |
| 2026-04-18 10:08 | 51.78611 | 4.65957 | 22972 ft | 383 kts | 209° |
| 2026-04-18 10:08 | 51.76201 | 4.64082 | 23909 ft | 386 kts | 209° |
| 2026-04-18 10:08 | 51.73769 | 4.62191 | 24698 ft | 390 kts | 209° |
| 2026-04-18 10:08 | 51.71318 | 4.60289 | 25533 ft | 390 kts | 209° |
| 2026-04-18 10:09 | 51.68885 | 4.58406 | 26578 ft | 386 kts | 210° |
| 2026-04-18 10:09 | 51.66482 | 4.56549 | 27700 ft | 381 kts | 210° |
| 2026-04-18 10:09 | 51.64101 | 4.54707 | 28680 ft | 380 kts | 210° |
| 2026-04-18 10:09 | 51.61728 | 4.52870 | 29208 ft | 378 kts | 210° |
| 2026-04-18 10:10 | 51.59358 | 4.51037 | 29197 ft | 378 kts | 210° |
| 2026-04-18 10:10 | 51.54619 | 4.47377 | 29220 ft | 378 kts | 210° |
| 2026-04-18 10:11 | 51.49867 | 4.43716 | 29212 ft | 378 kts | 210° |
| 2026-04-18 10:11 | 51.45120 | 4.40067 | 29210 ft | 379 kts | 210° |
| 2026-04-18 10:12 | 51.40361 | 4.36420 | 29211 ft | 379 kts | 210° |
| 2026-04-18 10:12 | 51.35565 | 4.32828 | 29209 ft | 381 kts | 210° |
| 2026-04-18 10:13 | 51.30759 | 4.29246 | 29203 ft | 382 kts | 210° |
| 2026-04-18 10:13 | 51.25959 | 4.25588 | 29211 ft | 382 kts | 211° |
| 2026-04-18 10:14 | 51.21184 | 4.21952 | 29212 ft | 383 kts | 210° |
| 2026-04-18 10:14 | 51.16119 | 4.19085 | 29229 ft | 392 kts | 199° |
| 2026-04-18 10:15 | 51.10671 | 4.17870 | 29221 ft | 399 kts | 189° |
| 2026-04-18 10:15 | 51.05106 | 4.17539 | 29224 ft | 400 kts | 189° |
| 2026-04-18 10:16 | 50.99541 | 4.17148 | 29213 ft | 400 kts | 189° |
| 2026-04-18 10:16 | 50.93984 | 4.16719 | 29209 ft | 400 kts | 189° |
| 2026-04-18 10:17 | 50.88409 | 4.16289 | 29212 ft | 401 kts | 189° |
| 2026-04-18 10:17 | 50.82830 | 4.15864 | 29214 ft | 402 kts | 189° |
| 2026-04-18 10:18 | 50.77241 | 4.15443 | 29211 ft | 402 kts | 189° |
| 2026-04-18 10:18 | 50.71649 | 4.15021 | 29215 ft | 403 kts | 189° |
| 2026-04-18 10:19 | 50.66039 | 4.14602 | 29208 ft | 404 kts | 189° |
| 2026-04-18 10:19 | 50.60424 | 4.14182 | 29215 ft | 404 kts | 188° |
| 2026-04-18 10:20 | 50.54804 | 4.13762 | 29205 ft | 405 kts | 188° |
| 2026-04-18 10:20 | 50.49213 | 4.13346 | 29212 ft | 405 kts | 188° |
| 2026-04-18 10:21 | 50.43578 | 4.12927 | 29205 ft | 406 kts | 188° |
| 2026-04-18 10:21 | 50.37927 | 4.12507 | 29211 ft | 407 kts | 188° |
| 2026-04-18 10:22 | 50.32312 | 4.12096 | 29150 ft | 397 kts | 188° |
| 2026-04-18 10:22 | 50.29553 | 4.11894 | 28703 ft | 395 kts | 188° |
| 2026-04-18 10:22 | 50.26819 | 4.11692 | 28266 ft | 391 kts | 188° |
| 2026-04-18 10:22 | 50.24113 | 4.11492 | 27789 ft | 387 kts | 188° |
| 2026-04-18 10:23 | 50.21431 | 4.11292 | 27312 ft | 384 kts | 188° |
| 2026-04-18 10:23 | 50.18771 | 4.11095 | 26852 ft | 381 kts | 188° |
| 2026-04-18 10:23 | 50.16129 | 4.10900 | 26388 ft | 379 kts | 188° |
| 2026-04-18 10:23 | 50.13500 | 4.10706 | 25957 ft | 376 kts | 188° |
| 2026-04-18 10:24 | 50.10903 | 4.10510 | 25559 ft | 373 kts | 188° |
| 2026-04-18 10:24 | 50.08322 | 4.10314 | 25161 ft | 369 kts | 188° |
| 2026-04-18 10:24 | 50.05767 | 4.10119 | 24768 ft | 366 kts | 187° |
| 2026-04-18 10:24 | 50.03234 | 4.09924 | 24384 ft | 363 kts | 187° |
| 2026-04-18 10:25 | 50.00717 | 4.09732 | 24005 ft | 361 kts | 187° |
| 2026-04-18 10:25 | 49.98212 | 4.09542 | 23567 ft | 360 kts | 187° |
| 2026-04-18 10:25 | 49.95711 | 4.09353 | 23148 ft | 359 kts | 187° |
| 2026-04-18 10:25 | 49.93218 | 4.09164 | 22744 ft | 358 kts | 187° |
| 2026-04-18 10:26 | 49.90765 | 4.08978 | 22353 ft | 357 kts | 187° |
| 2026-04-18 10:26 | 49.88284 | 4.08790 | 21967 ft | 356 kts | 187° |
| 2026-04-18 10:26 | 49.85810 | 4.08603 | 21587 ft | 355 kts | 187° |
| 2026-04-18 10:26 | 49.83347 | 4.08417 | 21202 ft | 353 kts | 187° |
| 2026-04-18 10:27 | 49.80890 | 4.08231 | 20830 ft | 352 kts | 187° |
| 2026-04-18 10:27 | 49.78446 | 4.08048 | 20453 ft | 351 kts | 187° |
| 2026-04-18 10:27 | 49.76009 | 4.07864 | 20083 ft | 350 kts | 187° |
| 2026-04-18 10:27 | 49.73581 | 4.07681 | 19702 ft | 349 kts | 187° |
| 2026-04-18 10:28 | 49.71162 | 4.07500 | 19325 ft | 347 kts | 187° |
| 2026-04-18 10:28 | 49.68756 | 4.07319 | 18960 ft | 345 kts | 187° |
| 2026-04-18 10:28 | 49.66367 | 4.07141 | 18586 ft | 342 kts | 187° |
| 2026-04-18 10:28 | 49.64000 | 4.06964 | 18181 ft | 339 kts | 187° |
| 2026-04-18 10:29 | 49.61656 | 4.06789 | 17782 ft | 336 kts | 187° |
| 2026-04-18 10:29 | 49.59330 | 4.06616 | 17409 ft | 332 kts | 187° |
| 2026-04-18 10:29 | 49.57032 | 4.06446 | 17047 ft | 329 kts | 186° |
| 2026-04-18 10:29 | 49.54755 | 4.06274 | 16688 ft | 326 kts | 186° |
| 2026-04-18 10:30 | 49.52495 | 4.06107 | 16341 ft | 323 kts | 186° |
| 2026-04-18 10:30 | 49.50258 | 4.05939 | 15993 ft | 321 kts | 186° |
| 2026-04-18 10:30 | 49.48059 | 4.05775 | 15670 ft | 320 kts | 186° |
| 2026-04-18 10:30 | 49.45843 | 4.05610 | 15326 ft | 318 kts | 186° |
| 2026-04-18 10:31 | 49.43631 | 4.05444 | 14976 ft | 317 kts | 186° |
| 2026-04-18 10:31 | 49.41446 | 4.05242 | 14637 ft | 310 kts | 192° |
| 2026-04-18 10:31 | 49.39464 | 4.04161 | 14421 ft | 305 kts | 214° |
| 2026-04-18 10:31 | 49.37893 | 4.01990 | 14095 ft | 306 kts | 232° |
| 2026-04-18 10:32 | 49.36819 | 3.99191 | 13795 ft | 306 kts | 249° |
| 2026-04-18 10:32 | 49.36183 | 3.96090 | 13530 ft | 301 kts | 249° |
| 2026-04-18 10:32 | 49.35318 | 3.93153 | 13284 ft | 302 kts | 243° |
| 2026-04-18 10:32 | 49.34325 | 3.90300 | 13042 ft | 304 kts | 242° |
| 2026-04-18 10:33 | 49.33317 | 3.87431 | 12798 ft | 306 kts | 242° |
| 2026-04-18 10:33 | 49.32319 | 3.84555 | 12548 ft | 305 kts | 242° |
| 2026-04-18 10:33 | 49.31289 | 3.81756 | 12443 ft | 300 kts | 237° |
| 2026-04-18 10:33 | 49.30078 | 3.79097 | 12369 ft | 305 kts | 234° |
| 2026-04-18 10:34 | 49.28814 | 3.76501 | 12187 ft | 302 kts | 234° |
| 2026-04-18 10:34 | 49.27554 | 3.73944 | 12001 ft | 299 kts | 234° |
| 2026-04-18 10:34 | 49.26313 | 3.71413 | 11786 ft | 296 kts | 234° |
| 2026-04-18 10:34 | 49.25091 | 3.68903 | 11600 ft | 293 kts | 234° |
| 2026-04-18 10:35 | 49.23881 | 3.66404 | 11408 ft | 291 kts | 234° |
| 2026-04-18 10:35 | 49.22678 | 3.63915 | 11284 ft | 290 kts | 234° |
| 2026-04-18 10:35 | 49.21472 | 3.61418 | 11135 ft | 295 kts | 234° |
| 2026-04-18 10:35 | 49.20243 | 3.58870 | 10851 ft | 298 kts | 234° |
| 2026-04-18 10:36 | 49.19019 | 3.56329 | 10644 ft | 295 kts | 234° |
| 2026-04-18 10:36 | 49.17815 | 3.53829 | 10437 ft | 289 kts | 234° |
| 2026-04-18 10:36 | 49.16652 | 3.51417 | 10237 ft | 282 kts | 234° |
| 2026-04-18 10:36 | 49.15502 | 3.49030 | 10054 ft | 276 kts | 234° |
| 2026-04-18 10:37 | 49.14371 | 3.46687 | 9856 ft | 271 kts | 234° |
| 2026-04-18 10:37 | 49.13263 | 3.44394 | 9656 ft | 265 kts | 234° |
| 2026-04-18 10:37 | 49.12182 | 3.42155 | 9484 ft | 260 kts | 234° |
| 2026-04-18 10:37 | 49.11105 | 3.39928 | 9303 ft | 261 kts | 234° |
| 2026-04-18 10:38 | 49.10028 | 3.37702 | 9140 ft | 261 kts | 234° |
| 2026-04-18 10:38 | 49.08949 | 3.35470 | 8974 ft | 262 kts | 234° |
| 2026-04-18 10:38 | 49.07860 | 3.33219 | 8781 ft | 264 kts | 234° |
| 2026-04-18 10:38 | 49.06768 | 3.30964 | 8612 ft | 265 kts | 234° |
| 2026-04-18 10:39 | 49.05671 | 3.28705 | 8433 ft | 264 kts | 234° |
| 2026-04-18 10:39 | 49.04581 | 3.26462 | 8240 ft | 261 kts | 234° |
| 2026-04-18 10:39 | 49.03506 | 3.24255 | 8084 ft | 258 kts | 234° |
| 2026-04-18 10:39 | 49.02440 | 3.22062 | 7919 ft | 257 kts | 234° |
| 2026-04-18 10:40 | 49.01363 | 3.19852 | 7607 ft | 263 kts | 234° |
| 2026-04-18 10:40 | 49.00273 | 3.17617 | 7404 ft | 262 kts | 234° |
| 2026-04-18 10:40 | 48.99183 | 3.15383 | 7185 ft | 262 kts | 234° |
| 2026-04-18 10:40 | 48.98102 | 3.13164 | 7018 ft | 260 kts | 234° |
| 2026-04-18 10:41 | 48.97046 | 3.11007 | 6850 ft | 256 kts | 234° |
| 2026-04-18 10:41 | 48.95981 | 3.08832 | 6678 ft | 256 kts | 234° |
| 2026-04-18 10:41 | 48.94922 | 3.06662 | 6495 ft | 254 kts | 234° |
| 2026-04-18 10:41 | 48.93870 | 3.04509 | 6317 ft | 253 kts | 234° |
| 2026-04-18 10:42 | 48.92821 | 3.02367 | 6144 ft | 252 kts | 234° |
| 2026-04-18 10:42 | 48.91770 | 3.00229 | 5982 ft | 252 kts | 234° |
| 2026-04-18 10:42 | 48.90719 | 2.98090 | 5783 ft | 254 kts | 234° |
| 2026-04-18 10:42 | 48.89692 | 2.96000 | 5670 ft | 254 kts | 234° |
| 2026-04-18 10:43 | 48.88628 | 2.93837 | 5486 ft | 256 kts | 234° |
| 2026-04-18 10:43 | 48.87563 | 2.91674 | 5363 ft | 254 kts | 234° |
| 2026-04-18 10:43 | 48.86503 | 2.89545 | 5136 ft | 251 kts | 234° |
| 2026-04-18 10:43 | 48.85480 | 2.87451 | 4938 ft | 243 kts | 234° |
| 2026-04-18 10:44 | 48.84822 | 2.86104 | 4869 ft | 238 kts | 234° |
| 2026-04-18 10:44 | 48.83831 | 2.84097 | 4701 ft | 237 kts | 234° |
| 2026-04-18 10:44 | 48.82839 | 2.82094 | 4524 ft | 237 kts | 234° |
| 2026-04-18 10:44 | 48.81856 | 2.80099 | 4357 ft | 234 kts | 233° |
| 2026-04-18 10:45 | 48.80873 | 2.78112 | 4201 ft | 238 kts | 233° |
| 2026-04-18 10:45 | 48.79886 | 2.76115 | 4052 ft | 235 kts | 233° |
| 2026-04-18 10:45 | 48.78967 | 2.74086 | 3881 ft | 233 kts | 244° |
| 2026-04-18 10:45 | 48.78464 | 2.71929 | 3756 ft | 231 kts | 254° |
| 2026-04-18 10:46 | 48.78053 | 2.69592 | 3586 ft | 227 kts | 255° |
| 2026-04-18 10:46 | 48.77656 | 2.67318 | 3460 ft | 220 kts | 254° |
| 2026-04-18 10:46 | 48.77257 | 2.65108 | 3287 ft | 213 kts | 253° |
| 2026-04-18 10:46 | 48.76875 | 2.63008 | 3147 ft | 198 kts | 253° |
| 2026-04-18 10:47 | 48.76528 | 2.61093 | 3116 ft | 187 kts | 253° |
| 2026-04-18 10:47 | 48.76189 | 2.59223 | 2895 ft | 178 kts | 253° |
| 2026-04-18 10:47 | 48.75876 | 2.57499 | 2673 ft | 162 kts | 253° |
| 2026-04-18 10:47 | 48.75594 | 2.55950 | 2470 ft | 142 kts | 253° |
| 2026-04-18 10:48 | 48.75342 | 2.54566 | 2327 ft | 137 kts | 253° |
| 2026-04-18 10:48 | 48.75107 | 2.53205 | 2185 ft | 138 kts | 254° |
| 2026-04-18 10:48 | 48.74833 | 2.51821 | 1962 ft | 133 kts | 253° |
| 2026-04-18 10:48 | 48.74581 | 2.50386 | 1755 ft | 146 kts | 254° |
| 2026-04-18 10:49 | 48.74318 | 2.48935 | 1520 ft | 138 kts | 254° |
| 2026-04-18 10:49 | 48.74068 | 2.47553 | 1377 ft | 138 kts | 254° |
| 2026-04-18 10:49 | 48.73811 | 2.46152 | 1187 ft | 138 kts | 254° |
| 2026-04-18 10:49 | 48.73560 | 2.44766 | 1020 ft | 136 kts | 254° |
| 2026-04-18 10:50 | 48.73312 | 2.43392 | 834 ft | 136 kts | 253° |
| 2026-04-18 10:50 | 48.73056 | 2.42003 | 659 ft | 138 kts | 253° |
| 2026-04-18 10:50 | 48.72811 | 2.40640 | 471 ft | 132 kts | 254° |
| 2026-04-18 10:50 | 48.72564 | 2.39286 | 317 ft | 133 kts | 254° |
| 2026-04-18 10:51 | 48.72341 | 2.38070 | 306 ft | 90 kts | 255° |
| 2026-04-18 10:51 | 48.72264 | 2.37643 | 300 ft | 0 kts | 255° |
| 2026-04-18 10:51 | 48.72252 | 2.37579 | 299 ft | 11 kts | 255° |
| 2026-04-18 10:51 | 48.72219 | 2.37390 | 300 ft | 30 kts | 256° |
| 2026-04-18 10:52 | 48.72166 | 2.36966 | 297 ft | 50 kts | 274° |
| 2026-04-18 10:52 | 48.72181 | 2.36691 | 296 ft | 0 kts | 274° |
| 2026-04-18 10:54 | 48.72181 | 2.36688 | 296 ft | 4 kts | 274° |
| 2026-04-18 10:55 | 48.72190 | 2.36563 | 300 ft | 14 kts | 282° |
| 2026-04-18 10:55 | 48.72232 | 2.36424 | 300 ft | 15 kts | 303° |
| 2026-04-18 10:55 | 48.72310 | 2.36307 | 298 ft | 16 kts | 332° |
| 2026-04-18 10:55 | 48.72396 | 2.36208 | 299 ft | 16 kts | 287° |
| 2026-04-18 10:56 | 48.72382 | 2.36036 | 297 ft | 17 kts | 257° |
| 2026-04-18 10:56 | 48.72352 | 2.35860 | 296 ft | 17 kts | 255° |
| 2026-04-18 10:56 | 48.72321 | 2.35684 | 294 ft | 17 kts | 255° |
| 2026-04-18 10:56 | 48.72322 | 2.35507 | 297 ft | 17 kts | 293° |
| 2026-04-18 10:57 | 48.72406 | 2.35382 | 299 ft | 17 kts | 335° |
| 2026-04-18 10:57 | 48.72521 | 2.35327 | 297 ft | 17 kts | 344° |
| 2026-04-18 10:57 | 48.72586 | 2.35253 | 300 ft | 10 kts | 282° |
| 2026-04-18 10:57 | 48.72580 | 2.35187 | 299 ft | 0 kts | 252° |